createdAt,value
2023-05-11T00:01:28.648Z,37.3
2023-05-11T00:07:05.796Z,37.3
2023-05-11T00:12:41.994Z,37.3
2023-05-11T00:18:03.313Z,37.3
2023-05-11T00:23:39.926Z,37.2
2023-05-11T00:29:16.311Z,37.2
2023-05-11T00:34:38.503Z,37.2
2023-05-11T00:40:17.264Z,37.1
2023-05-11T00:45:53.783Z,37.1
2023-05-11T00:51:30.100Z,37.1
2023-05-11T00:57:06.034Z,37.1
2023-05-11T01:02:42.777Z,37.2
2023-05-11T01:08:19.514Z,37.9
2023-05-11T01:14:11.200Z,38.9
2023-05-11T01:19:47.969Z,40.1
2023-05-11T01:25:23.674Z,41.2
2023-05-11T01:31:15.274Z,42.3
2023-05-11T01:37:09.691Z,43.5
2023-05-11T01:43:00.513Z,44.6
2023-05-11T01:48:52.753Z,45.9
2023-05-11T01:54:28.915Z,46.9
2023-05-11T02:00:20.057Z,48.2
2023-05-11T02:06:12.398Z,49.3
2023-05-11T02:12:04.040Z,50.5
2023-05-11T02:17:56.224Z,51.7
2023-05-11T02:23:47.892Z,52.8
2023-05-11T02:29:24.204Z,54
2023-05-11T02:35:16.362Z,54.6
2023-05-11T02:41:08.682Z,54.7
2023-05-11T02:47:00.563Z,54.7
2023-05-11T02:52:52.874Z,54.7
2023-05-11T02:58:44.604Z,54.6
2023-05-11T03:04:39.300Z,54.6
2023-05-11T03:10:32.420Z,54.6
2023-05-11T03:16:24.053Z,54.6
2023-05-11T03:22:16.615Z,54.6
2023-05-11T03:28:07.790Z,54.5
2023-05-11T03:34:03.091Z,54.5
2023-05-11T03:39:54.477Z,54.4
2023-05-11T03:45:47.718Z,54.4
2023-05-11T03:51:40.271Z,54.4
2023-05-11T03:57:31.621Z,54.4
2023-05-11T04:03:23.989Z,54.3
2023-05-11T04:09:16.648Z,54.3
2023-05-11T04:15:08.033Z,54.3
2023-05-11T04:21:00.041Z,54.3
2023-05-11T04:26:51.965Z,54.2
2023-05-11T04:32:43.403Z,54.2
2023-05-11T04:38:34.458Z,54.1
2023-05-11T04:44:26.376Z,54.1
2023-05-11T04:50:18.438Z,54.1
2023-05-11T04:55:54.930Z,54
2023-05-11T05:01:31.264Z,53.9
2023-05-11T05:07:09.823Z,54
2023-05-11T05:12:45.454Z,53.9
2023-05-11T05:18:36.644Z,53.9
2023-05-11T05:24:28.637Z,53.9
2023-05-11T05:30:20.227Z,53.8
2023-05-11T05:35:57.098Z,53.8
2023-05-11T05:41:33.499Z,53.8
2023-05-11T05:47:27.271Z,53.7
2023-05-11T05:53:18.390Z,53.7
2023-05-11T05:59:12.072Z,53.6
2023-05-11T06:05:07.835Z,53.6
2023-05-11T06:11:02.081Z,53.6
2023-05-11T06:16:54.130Z,53.6
2023-05-11T06:22:45.712Z,53.5
2023-05-11T06:28:40.145Z,53.4
2023-05-11T06:34:01.916Z,53.4
2023-05-11T06:39:38.428Z,53.4
2023-05-11T06:45:30.697Z,53.4
2023-05-11T06:51:26.692Z,53.3
2023-05-11T06:57:18.012Z,53.3
2023-05-11T07:03:10.006Z,53.3
2023-05-11T07:09:02.398Z,53.3
2023-05-11T07:14:54.828Z,53.2
2023-05-11T07:20:31.839Z,53.1
2023-05-11T07:25:52.610Z,53.1
2023-05-11T07:31:30.014Z,53.1
2023-05-11T07:37:06.996Z,53.1
2023-05-11T07:43:01.866Z,53
2023-05-11T07:49:07.460Z,52.9
2023-05-11T07:55:03.940Z,52.9
2023-05-11T08:00:56.852Z,52.9
2023-05-11T08:06:49.974Z,52.9
2023-05-11T08:12:29.102Z,52.8
2023-05-11T08:18:21.332Z,52.8
2023-05-11T08:24:15.694Z,52.8
2023-05-11T08:29:52.746Z,52.7
2023-05-11T08:35:43.640Z,52.7
2023-05-11T08:41:36.980Z,52.6
2023-05-11T08:47:47.281Z,52.6
2023-05-11T08:53:39.403Z,52.6
2023-05-11T08:59:31.955Z,52.5
2023-05-11T09:05:24.623Z,52.5
2023-05-11T09:11:03.371Z,52.4
2023-05-11T09:17:18.212Z,52.4
2023-05-11T09:28:35.848Z,52.3
2023-05-11T09:34:23.747Z,52.3
2023-05-11T09:40:43.149Z,52.3
2023-05-11T09:46:24.171Z,52.2
2023-05-11T09:52:22.596Z,52.1
2023-05-11T09:57:58.512Z,52.1
2023-05-11T10:03:35.437Z,52.1
2023-05-11T10:09:28.114Z,52
2023-05-11T10:21:01.132Z,51.9
2023-05-11T10:26:54.675Z,51.8
2023-05-11T10:32:46.795Z,51.8
2023-05-11T10:38:38.243Z,51.8
2023-05-11T10:44:30.368Z,51.7
2023-05-11T10:50:25.566Z,51.7
2023-05-11T10:56:19.980Z,51.6
2023-05-11T11:02:12.670Z,51.6
2023-05-11T11:08:04.513Z,51.6
2023-05-11T11:13:56.786Z,51.5
2023-05-11T11:19:49.775Z,51.5
2023-05-11T11:25:40.537Z,51.4
2023-05-11T11:31:31.948Z,51.4
2023-05-11T11:37:23.347Z,51.4
2023-05-11T11:43:37.825Z,51.3
2023-05-11T11:49:30.440Z,51.3
2023-05-11T11:55:22.768Z,51.3
2023-05-11T12:01:16.022Z,51.3
2023-05-11T12:07:09.204Z,51.2
2023-05-11T12:13:01.251Z,51.1
2023-05-11T12:18:52.999Z,51.1
2023-05-11T12:24:44.476Z,51.1
2023-05-11T12:30:36.507Z,51.1
2023-05-11T12:36:28.208Z,51
2023-05-11T12:42:19.463Z,50.9
2023-05-11T12:48:11.140Z,50.9
2023-05-11T12:54:02.329Z,50.9
2023-05-11T12:59:54.210Z,50.8
2023-05-11T13:05:30.971Z,50.8
2023-05-11T13:11:22.654Z,50.8
2023-05-11T13:17:17.247Z,50.7
2023-05-11T13:23:09.306Z,50.7
2023-05-11T13:29:14.411Z,50.6
2023-05-11T13:34:51.326Z,50.6
2023-05-11T13:40:42.435Z,50.6
2023-05-11T13:46:34.401Z,50.6
2023-05-11T13:52:29.578Z,50.5
2023-05-11T13:58:21.191Z,50.5
2023-05-11T14:04:30.980Z,50.4
2023-05-11T14:10:38.129Z,50.4
2023-05-11T14:16:30.622Z,50.4
2023-05-11T14:22:24.667Z,50.3
2023-05-11T14:28:24.662Z,50.3
2023-05-11T14:34:19.405Z,50.3
2023-05-11T14:40:12.416Z,50.2
2023-05-11T14:46:04.729Z,50.1
2023-05-11T14:51:56.731Z,50.1
2023-05-11T14:57:48.946Z,50.1
2023-05-11T15:03:56.405Z,50.1
2023-05-11T15:10:04.321Z,50
2023-05-11T15:15:56.393Z,49.9
2023-05-11T15:21:49.838Z,49.9
2023-05-11T15:27:42.356Z,49.9
2023-05-11T15:33:37.630Z,49.9
2023-05-11T15:39:46.306Z,49.8
2023-05-11T15:45:39.594Z,49.8
2023-05-11T15:51:19.168Z,49.7
2023-05-11T15:57:12.061Z,49.7
2023-05-11T16:03:07.039Z,49.6
2023-05-11T16:09:01.440Z,49.6
2023-05-11T16:14:56.086Z,49.6
2023-05-11T16:20:53.398Z,49.5
2023-05-11T16:26:48.608Z,49.4
2023-05-11T16:32:58.580Z,49.4
2023-05-11T16:38:55.326Z,49.4
2023-05-11T16:44:49.408Z,49.4
2023-05-11T16:50:47.398Z,49.3
2023-05-11T16:56:47.439Z,49.3
2023-05-11T17:02:50.706Z,49.2
2023-05-11T17:08:50.891Z,49.2
2023-05-11T17:14:51.392Z,49.1
2023-05-11T17:20:52.478Z,49.1
2023-05-11T17:27:04.704Z,49.1
2023-05-11T17:33:35.284Z,49
2023-05-11T17:39:47.974Z,48.9
2023-05-11T17:45:49.593Z,48.9
2023-05-11T17:51:50.766Z,48.9
2023-05-11T17:57:51.837Z,48.8
2023-05-11T18:03:53.821Z,48.8
2023-05-11T18:10:08.791Z,48.8
2023-05-11T18:16:11.068Z,48.7
2023-05-11T18:21:58.183Z,48.7
2023-05-11T18:27:57.895Z,48.6
2023-05-11T18:33:42.979Z,48.6
2023-05-11T18:39:44.279Z,48.6
2023-05-11T18:45:44.863Z,48.5
2023-05-11T18:51:48.126Z,48.5
2023-05-11T18:58:04.249Z,48.4
2023-05-11T19:04:17.215Z,48.4
2023-05-11T19:10:19.432Z,48.4
2023-05-11T19:16:21.831Z,48.3
2023-05-11T19:22:26.108Z,48.3
2023-05-11T19:28:36.257Z,47.9
2023-05-11T19:34:37.879Z,46.3
2023-05-11T19:41:17.454Z,45.9
2023-05-11T19:47:31.667Z,45.7
2023-05-11T19:53:36.137Z,45.6
2023-05-11T20:03:34.821Z,45.5
2023-05-11T20:09:39.229Z,45.4
2023-05-11T20:15:39.951Z,45.4
2023-05-11T20:21:41.661Z,45.3
2023-05-11T20:27:42.793Z,45.3
2023-05-11T20:39:56.657Z,45.1
2023-05-11T20:45:56.986Z,45.1
2023-05-11T20:52:16.874Z,45
2023-05-11T20:58:17.318Z,45
2023-05-11T21:04:25.506Z,44.9
2023-05-11T21:10:23.739Z,44.8
2023-05-11T21:16:21.653Z,44.8
2023-05-11T21:22:19.615Z,44.8
2023-05-11T21:27:59.033Z,44.7
2023-05-11T21:33:37.408Z,44.6
2023-05-11T21:39:00.195Z,44.6
2023-05-11T21:44:36.894Z,44.5
2023-05-11T21:49:56.927Z,44.4
2023-05-11T21:55:33.426Z,44.4
2023-05-11T22:01:10.457Z,44.3
2023-05-11T22:06:47.208Z,44.3
2023-05-11T22:12:31.409Z,44.3
2023-05-11T22:18:07.318Z,44.2
2023-05-11T22:23:43.106Z,44.1
2023-05-11T22:29:19.670Z,44.1
2023-05-11T22:34:55.959Z,44.1
2023-05-11T22:40:16.644Z,44
2023-05-11T22:45:37.886Z,43.9
2023-05-11T22:50:58.570Z,43.9
2023-05-11T22:56:19.209Z,43.9
2023-05-11T23:01:25.750Z,43.8
2023-05-11T23:06:47.495Z,43.8
2023-05-11T23:12:23.143Z,43.7
2023-05-11T23:17:44.135Z,43.7
2023-05-11T23:23:05.502Z,43.6
2023-05-11T23:28:10.340Z,43.6
2023-05-11T23:33:32.000Z,43.6
2023-05-11T23:38:53.288Z,43.5
2023-05-11T23:44:14.372Z,43.4
2023-05-11T23:49:51.121Z,43.4
2023-05-11T23:55:12.065Z,43.4
